Time;durP1;ratioP1;P1;durP2;ratioP2;P2;SDS_P1;SDS_P2;PMS_P1;PMS_P2;Temp;Humidity;BMP_temperature;BMP_pressure;BME280_temperature;BME280_humidity;BME280_pressure;Samples;Min_cycle;Max_cycle;Signal;HPM_P1;HPM_P2
2022/01/07 00:01:02;;;;;;;5.50;2.30;;;;;;;2.09;87.26;99883.66;5027057;28;20817;-84
2022/01/07 00:03:30;;;;;;;5.65;1.00;;;;;;;2.05;87.40;99871.72;5024941;28;20477;-84
2022/01/07 00:05:59;;;;;;;2.55;1.00;;;;;;;2.00;87.30;99874.56;5026166;28;20431;-85
2022/01/07 00:08:29;;;;;;;13.00;3.78;;;;;;;1.95;87.63;99871.97;5026700;28;20049;-85
2022/01/07 00:10:56;;;;;;;2.80;1.25;;;;;;;1.92;87.35;99867.94;5009395;28;20450;-85
2022/01/07 00:13:24;;;;;;;1.30;0.50;;;;;;;1.84;87.44;99888.59;5026920;28;20041;-85
2022/01/07 00:15:54;;;;;;;1.15;1.08;;;;;;;1.81;87.75;99883.75;5025659;28;20132;-84
2022/01/07 00:18:23;;;;;;;2.58;0.80;;;;;;;1.76;87.69;99892.06;5026368;28;20049;-85
2022/01/07 00:20:51;;;;;;;3.00;0.52;;;;;;;1.73;87.76;99897.31;5024913;28;20049;-84
2022/01/07 00:23:19;;;;;;;2.35;1.55;;;;;;;1.72;88.29;99882.84;5025016;28;20431;-84
2022/01/07 00:25:49;;;;;;;3.70;0.85;;;;;;;1.70;88.43;99881.53;5009652;28;20049;-84
2022/01/07 00:28:17;;;;;;;2.10;0.90;;;;;;;1.68;88.41;99890.06;5027855;28;20053;-84
2022/01/07 00:30:44;;;;;;;1.55;1.08;;;;;;;1.67;88.40;99891.16;5009104;28;20060;-85
2022/01/07 00:33:11;;;;;;;3.58;0.90;;;;;;;1.68;88.23;99879.13;5025974;28;20045;-84
2022/01/07 00:35:38;;;;;;;6.78;1.42;;;;;;;1.66;88.62;99892.28;5036741;28;20029;-84
2022/01/07 00:38:05;;;;;;;6.70;1.40;;;;;;;1.65;88.30;99878.94;5010000;28;20081;-84
2022/01/07 00:40:32;;;;;;;5.03;1.38;;;;;;;1.64;88.29;99883.56;5025478;28;20144;-84
2022/01/07 00:42:59;;;;;;;4.45;1.40;;;;;;;1.64;88.44;99872.66;5025022;28;20042;-83
2022/01/07 00:45:26;;;;;;;4.38;1.50;;;;;;;1.66;88.57;99886.81;5025409;28;20525;-84
2022/01/07 00:47:55;;;;;;;3.88;1.42;;;;;;;1.68;88.25;99873.69;5025895;28;20461;-84
2022/01/07 00:50:26;;;;;;;3.63;1.55;;;;;;;1.71;88.32;99873.06;5024514;28;20045;-84
2022/01/07 00:52:53;;;;;;;6.57;1.15;;;;;;;1.74;87.79;99883.38;5025847;28;20053;-84
2022/01/07 00:55:20;;;;;;;6.18;1.08;;;;;;;1.76;87.84;99883.06;5024428;28;20043;-84
2022/01/07 00:57:48;;;;;;;5.85;1.02;;;;;;;1.76;87.77;99875.69;5024843;28;20041;-84
2022/01/07 01:00:18;;;;;;;4.22;1.20;;;;;;;1.74;87.85;99877.91;5008423;28;20046;-84
2022/01/07 01:02:46;;;;;;;5.90;1.40;;;;;;;1.76;87.45;99883.06;5024021;28;20046;-84
2022/01/07 01:05:14;;;;;;;4.40;0.90;;;;;;;1.77;87.77;99893.66;5024177;28;20049;-84
2022/01/07 01:07:42;;;;;;;5.28;0.82;;;;;;;1.78;87.48;99899.91;5024250;28;20469;-84
2022/01/07 01:10:10;;;;;;;2.10;1.00;;;;;;;1.78;87.57;99900.72;5025611;28;20041;-85
2022/01/07 01:12:39;;;;;;;2.65;0.88;;;;;;;1.77;87.44;99901.06;5025263;28;20064;-84
2022/01/07 01:15:09;;;;;;;2.10;0.90;;;;;;;1.76;87.07;99900.22;5025673;28;20044;-85
2022/01/07 01:17:37;;;;;;;5.63;0.90;;;;;;;1.75;86.99;99904.06;5041465;28;20050;-84
2022/01/07 01:20:06;;;;;;;4.55;0.95;;;;;;;1.77;87.07;99898.31;5025185;28;20064;-84
2022/01/07 01:22:33;;;;;;;1.02;0.75;;;;;;;1.77;87.04;99890.91;5026536;28;20123;-84
2022/01/07 01:25:00;;;;;;;4.38;0.77;;;;;;;1.76;86.99;99902.16;5025882;28;20405;-83
2022/01/07 01:27:27;;;;;;;1.67;0.52;;;;;;;1.77;86.94;99893.66;5008020;28;20385;-84
2022/01/07 01:29:54;;;;;;;4.35;0.73;;;;;;;1.77;86.61;99888.19;5023381;28;20045;-85
2022/01/07 01:32:21;;;;;;;3.88;0.80;;;;;;;1.77;86.60;99890.13;5026119;28;20072;-85
2022/01/07 01:34:47;;;;;;;3.50;0.55;;;;;;;1.74;86.50;99910.66;5023244;28;20037;-84
2022/01/07 01:37:14;;;;;;;3.30;0.90;;;;;;;1.71;86.76;99907.72;5007134;28;20156;-84
2022/01/07 01:39:41;;;;;;;3.60;0.70;;;;;;;1.69;86.34;99905.31;5024596;28;20067;-85
2022/01/07 01:42:08;;;;;;;0.75;0.40;;;;;;;1.68;86.50;99916.53;5026326;28;20768;-84
2022/01/07 01:44:35;;;;;;;3.80;0.80;;;;;;;1.64;86.59;99913.59;5024633;28;20048;-84
2022/01/07 01:47:03;;;;;;;2.53;0.60;;;;;;;1.64;86.70;99905.41;5026212;28;20047;-84
2022/01/07 01:49:30;;;;;;;3.38;0.50;;;;;;;1.67;86.80;99921.16;5022983;28;20061;-85
2022/01/07 01:51:56;;;;;;;5.28;1.00;;;;;;;1.70;86.61;99909.63;5023574;28;20055;-84
2022/01/07 01:54:23;;;;;;;5.07;0.68;;;;;;;1.75;86.45;99919.63;5026352;28;20039;-83
2022/01/07 01:56:50;;;;;;;5.25;1.10;;;;;;;1.75;86.56;99914.97;5023767;28;20140;-84
2022/01/07 01:59:28;;;;;;;0.77;0.50;;;;;;;1.81;86.50;99911.03;5022400;28;20041;-83
2022/01/07 02:01:58;;;;;;;1.92;0.60;;;;;;;1.80;86.46;99893.03;5024168;28;20051;-84
2022/01/07 02:04:25;;;;;;;11.63;1.08;;;;;;;1.77;86.34;99888.19;5025642;28;20050;-84
2022/01/07 02:06:53;;;;;;;2.22;0.90;;;;;;;1.76;86.52;99892.06;5024449;28;20498;-84
2022/01/07 02:09:25;;;;;;;4.47;0.77;;;;;;;1.77;86.48;99877.28;5024714;28;20049;-83
2022/01/07 02:11:51;;;;;;;5.30;0.73;;;;;;;1.74;85.97;99888.81;5024226;28;20507;-84
2022/01/07 02:14:18;;;;;;;4.60;0.90;;;;;;;1.69;86.19;99888.13;5024407;28;20041;-82
2022/01/07 02:16:48;;;;;;;2.30;0.60;;;;;;;1.65;85.98;99884.38;5023293;28;20046;-82
2022/01/07 02:19:15;;;;;;;2.08;0.55;;;;;;;1.61;86.13;99883.41;5023787;28;20116;-84
2022/01/07 02:21:42;;;;;;;0.80;0.50;;;;;;;1.60;86.42;99885.31;5016431;28;20136;-84
2022/01/07 02:24:08;;;;;;;4.75;1.52;;;;;;;1.60;86.16;99888.03;5007419;28;20060;-84
2022/01/07 02:26:36;;;;;;;3.30;0.47;;;;;;;1.58;86.44;99873.91;5024735;28;20048;-84
2022/01/07 02:29:07;;;;;;;4.90;0.80;;;;;;;1.54;86.52;99877.53;5021505;28;20131;-83
2022/01/07 02:31:34;;;;;;;3.78;1.05;;;;;;;1.53;86.57;99873.22;5023394;28;20053;-83
2022/01/07 02:34:00;;;;;;;3.42;0.68;;;;;;;1.51;86.43;99889.88;5025063;28;20712;-83
2022/01/07 02:36:27;;;;;;;3.58;0.75;;;;;;;1.49;86.36;99892.09;5024659;28;20044;-84
2022/01/07 02:38:54;;;;;;;2.13;0.90;;;;;;;1.47;86.79;99905.25;5024001;28;20354;-84
2022/01/07 02:41:21;;;;;;;1.85;0.50;;;;;;;1.47;86.52;99905.25;5007012;28;20065;-84
2022/01/07 02:43:47;;;;;;;1.65;0.57;;;;;;;1.50;86.67;99904.63;5007661;28;20047;-84
2022/01/07 02:46:14;;;;;;;1.38;0.50;;;;;;;1.50;86.34;99899.19;5024061;28;20026;-83
2022/01/07 02:48:41;;;;;;;2.13;0.45;;;;;;;1.50;86.33;99904.63;5024440;28;20128;-80
2022/01/07 02:51:08;;;;;;;1.23;0.85;;;;;;;1.50;86.48;99910.09;5023244;28;20465;-81
2022/01/07 02:53:35;;;;;;;1.00;0.28;;;;;;;1.46;86.52;99903.63;5021910;28;20042;-81
2022/01/07 02:56:02;;;;;;;2.72;0.40;;;;;;;1.50;86.64;99921.00;5007412;28;20402;-81
2022/01/07 02:58:29;;;;;;;4.65;1.73;;;;;;;1.52;86.40;99918.78;5023633;28;20037;-82
2022/01/07 03:00:56;;;;;;;0.57;0.57;;;;;;;1.54;86.37;99919.28;5006223;28;20056;-80
2022/01/07 03:03:23;;;;;;;2.47;0.68;;;;;;;1.57;86.07;99943.22;5023202;28;20064;-82
2022/01/07 03:05:50;;;;;;;2.92;0.40;;;;;;;1.59;86.18;99946.44;5022799;28;20074;-79
2022/01/07 03:08:17;;;;;;;3.42;0.68;;;;;;;1.59;85.82;99957.34;5024277;28;20053;-81
2022/01/07 03:10:43;;;;;;;2.15;0.50;;;;;;;1.61;86.57;99936.06;5024123;28;20056;-81
2022/01/07 03:13:10;;;;;;;1.98;0.80;;;;;;;1.61;86.42;99927.06;5025809;28;20807;-81
2022/01/07 03:15:38;;;;;;;4.55;1.15;;;;;;;1.63;86.36;99930.28;5023196;28;20128;-81
2022/01/07 03:18:07;;;;;;;2.58;0.47;;;;;;;1.61;86.64;99918.88;5023179;28;20136;-81
2022/01/07 03:20:38;;;;;;;4.85;0.50;;;;;;;1.58;86.54;99920.28;5023632;28;20080;-81
2022/01/07 03:23:12;;;;;;;6.47;1.10;;;;;;;1.58;87.08;99923.00;5022532;28;20060;-82
2022/01/07 03:25:40;;;;;;;3.38;0.80;;;;;;;1.59;86.97;99908.25;5024596;28;20072;-83
2022/01/07 03:28:10;;;;;;;4.63;0.68;;;;;;;1.61;86.94;99922.41;5023718;28;20037;-83
2022/01/07 03:30:37;;;;;;;3.85;1.15;;;;;;;1.58;87.09;99905.84;5022994;28;20041;-83
2022/01/07 03:33:04;;;;;;;2.88;0.60;;;;;;;1.56;87.09;99900.66;5023794;28;20040;-81
2022/01/07 03:35:31;;;;;;;4.38;0.75;;;;;;;1.50;87.56;99904.63;5023405;28;20033;-82
2022/01/07 03:37:58;;;;;;;1.52;0.52;;;;;;;1.44;87.38;99894.13;5023805;28;20140;-82
2022/01/07 03:40:25;;;;;;;3.83;0.55;;;;;;;1.40;87.60;99883.03;5021290;28;22286;-82
2022/01/07 03:42:52;;;;;;;3.88;0.95;;;;;;;1.39;87.80;99862.34;5023420;28;20080;-82
2022/01/07 03:45:20;;;;;;;2.28;0.40;;;;;;;1.37;87.94;99877.38;5005220;28;20041;-82
2022/01/07 03:47:48;;;;;;;2.65;0.60;;;;;;;1.35;88.26;99877.69;5022914;28;20057;-82
2022/01/07 03:50:17;;;;;;;4.03;0.93;;;;;;;1.29;88.51;99870.75;5007562;28;20056;-82
2022/01/07 03:52:44;;;;;;;2.95;0.60;;;;;;;1.25;88.29;99869.72;5022876;28;20048;-82
2022/01/07 03:55:14;;;;;;;1.88;0.45;;;;;;;1.22;88.34;99881.22;5022453;28;20038;-82
2022/01/07 03:57:41;;;;;;;3.03;0.55;;;;;;;1.20;88.46;99881.53;5022694;28;20037;-82
2022/01/07 04:00:11;;;;;;;4.60;0.73;;;;;;;1.19;88.41;99890.03;5023277;28;20493;-82
2022/01/07 04:02:39;;;;;;;3.92;0.52;;;;;;;1.20;88.35;99883.47;5024172;28;20131;-82
2022/01/07 04:05:06;;;;;;;3.92;0.70;;;;;;;1.17;88.95;99897.69;5022835;28;20056;-83
2022/01/07 04:07:33;;;;;;;1.40;0.38;;;;;;;1.20;88.65;99900.63;5026524;28;20125;-82
2022/01/07 04:10:00;;;;;;;5.50;0.93;;;;;;;1.20;88.56;99905.25;5025873;28;20588;-82
2022/01/07 04:12:27;;;;;;;2.85;0.60;;;;;;;1.21;89.11;99901.44;5027073;28;20038;-82
2022/01/07 04:15:08;;;;;;;4.20;0.88;;;;;;;1.20;88.83;99899.81;5025376;28;20045;-82
2022/01/07 04:17:40;;;;;;;8.70;1.60;;;;;;;1.17;89.33;99908.59;5025722;28;20055;-82
2022/01/07 04:20:10;;;;;;;1.73;0.63;;;;;;;1.17;88.68;99909.41;5003971;28;20099;-82
2022/01/07 04:22:37;;;;;;;8.00;0.70;;;;;;;1.16;88.94;99913.25;5026658;28;20469;-82
2022/01/07 04:25:07;;;;;;;3.42;0.40;;;;;;;1.17;89.03;99930.41;5009983;28;20180;-82
2022/01/07 04:27:34;;;;;;;5.28;0.70;;;;;;;1.15;89.00;99914.38;5026281;28;20037;-82
2022/01/07 04:30:02;;;;;;;7.47;0.65;;;;;;;1.16;89.13;99912.44;5026386;28;20048;-81
2022/01/07 04:32:29;;;;;;;2.55;0.60;;;;;;;1.17;89.22;99905.88;5027354;28;20037;-82
2022/01/07 04:34:56;;;;;;;4.30;1.00;;;;;;;1.18;89.03;99912.94;5026696;28;20033;-82
2022/01/07 04:37:22;;;;;;;5.90;1.25;;;;;;;1.17;89.30;99905.88;5023443;28;20393;-82
2022/01/07 04:39:49;;;;;;;2.67;1.00;;;;;;;1.17;89.22;99905.88;5010893;28;20052;-82
2022/01/07 04:42:16;;;;;;;6.22;0.73;;;;;;;1.16;89.08;99907.81;5009072;28;20383;-82
2022/01/07 04:44:43;;;;;;;1.95;0.80;;;;;;;1.16;89.02;99910.53;5027122;28;20048;-82
2022/01/07 04:47:10;;;;;;;5.15;0.95;;;;;;;1.16;88.99;99909.72;5025009;28;20041;-82
2022/01/07 04:49:37;;;;;;;9.43;1.45;;;;;;;1.16;89.11;99904.28;5026012;28;20065;-81
2022/01/07 04:52:05;;;;;;;7.88;1.90;;;;;;;1.16;89.36;99916.00;5025340;28;20037;-81
2022/01/07 04:54:33;;;;;;;8.40;1.15;;;;;;;1.16;89.66;99934.25;5026843;28;20041;-82
2022/01/07 04:57:00;;;;;;;5.68;1.45;;;;;;;1.16;89.58;99942.44;5036268;28;20034;-82
2022/01/07 04:59:26;;;;;;;4.63;1.42;;;;;;;1.16;89.92;99940.53;5027078;28;20041;-82
2022/01/07 05:01:54;;;;;;;7.55;1.30;;;;;;;1.18;89.69;99940.22;5025156;28;20049;-82
2022/01/07 05:04:22;;;;;;;2.42;0.90;;;;;;;1.20;89.64;99932.53;5026028;28;20041;-82
2022/01/07 05:06:48;;;;;;;5.53;0.85;;;;;;;1.18;89.71;99940.22;5026506;28;20071;-82
2022/01/07 05:09:16;;;;;;;9.32;1.52;;;;;;;1.23;89.71;99929.19;5009036;28;20037;-82
2022/01/07 05:11:44;;;;;;;4.30;1.23;;;;;;;1.20;89.50;99932.53;5008317;28;20081;-81
2022/01/07 05:14:12;;;;;;;5.53;1.40;;;;;;;1.21;89.62;99936.88;5026445;28;20389;-82
2022/01/07 05:16:39;;;;;;;4.20;1.08;;;;;;;1.19;89.67;99926.25;5007946;28;20545;-82
2022/01/07 05:19:06;;;;;;;1.67;0.70;;;;;;;1.20;89.62;99922.44;5025473;28;20044;-82
2022/01/07 05:21:33;;;;;;;7.38;1.20;;;;;;;1.20;89.90;99927.88;5024134;28;20045;-80
2022/01/07 05:24:00;;;;;;;4.05;0.95;;;;;;;1.22;89.63;99922.94;5026672;28;20517;-81
2022/01/07 05:26:27;;;;;;;2.40;0.90;;;;;;;1.25;89.62;99946.06;5024613;28;20464;-82
2022/01/07 05:28:53;;;;;;;7.55;0.90;;;;;;;1.27;89.56;99960.22;5024103;28;20045;-81
2022/01/07 05:31:24;;;;;;;4.85;1.10;;;;;;;1.28;89.44;99961.00;5024280;28;20034;-82
2022/01/07 05:33:53;;;;;;;4.25;0.70;;;;;;;1.31;89.22;99966.66;5008974;28;20052;-82
2022/01/07 05:36:21;;;;;;;5.40;1.27;;;;;;;1.32;89.19;99975.66;5025469;28;20037;-82
2022/01/07 05:38:48;;;;;;;2.05;0.52;;;;;;;1.31;89.15;99965.84;5024269;28;20041;-82
2022/01/07 05:41:15;;;;;;;6.28;0.52;;;;;;;1.27;89.17;99982.03;5024951;28;21434;-81
2022/01/07 05:43:42;;;;;;;6.65;0.88;;;;;;;1.27;88.61;99976.56;5025382;28;20606;-82
2022/01/07 05:46:12;;;;;;;1.90;0.40;;;;;;;1.22;88.51;99991.09;5023510;28;20056;-82
2022/01/07 05:48:39;;;;;;;5.18;1.35;;;;;;;1.18;88.38;99973.75;5023689;28;20095;-82
2022/01/07 05:51:07;;;;;;;2.50;0.80;;;;;;;1.17;88.32;99991.19;5024396;28;20382;-82
2022/01/07 05:53:33;;;;;;;5.93;1.40;;;;;;;1.15;88.66;99992.59;5008021;28;20061;-82
2022/01/07 05:56:00;;;;;;;0.65;0.40;;;;;;;1.12;88.52;99985.03;5023913;28;20037;-82
2022/01/07 05:58:27;;;;;;;3.72;0.75;;;;;;;1.10;88.70;99998.97;5007517;28;20056;-81
2022/01/07 06:00:54;;;;;;;1.85;0.50;;;;;;;1.12;88.57;99993.19;5023331;28;20041;-81
2022/01/07 06:03:21;;;;;;;4.25;1.10;;;;;;;1.14;88.97;99988.25;5023911;28;20034;-82
2022/01/07 06:05:48;;;;;;;1.15;0.68;;;;;;;1.18;88.66;99997.47;5006701;28;20061;-82
2022/01/07 06:08:15;;;;;;;10.32;2.28;;;;;;;1.18;88.83;99989.28;5024413;28;20049;-82
2022/01/07 06:10:45;;;;;;;5.05;0.80;;;;;;;1.17;88.70;100009.47;5023489;28;20041;-82
2022/01/07 06:13:13;;;;;;;3.25;1.50;;;;;;;1.17;88.86;100004.00;5023024;28;20039;-83
2022/01/07 06:15:40;;;;;;;3.78;0.98;;;;;;;1.17;88.85;100002.09;5022679;28;20049;-82
2022/01/07 06:18:07;;;;;;;4.70;0.70;;;;;;;1.16;88.93;100000.50;5024698;28;20124;-82
2022/01/07 06:20:34;;;;;;;5.13;0.50;;;;;;;1.14;88.74;100010.88;5006870;28;20408;-82
2022/01/07 06:23:00;;;;;;;4.15;0.47;;;;;;;1.14;89.08;100020.97;5024587;28;20052;-82
2022/01/07 06:25:27;;;;;;;2.45;1.60;;;;;;;1.13;89.00;100014.72;5024437;28;20400;-82
2022/01/07 06:27:55;;;;;;;12.50;1.13;;;;;;;1.14;89.25;100010.06;5024267;28;20041;-82
2022/01/07 06:30:22;;;;;;;2.40;1.23;;;;;;;1.15;89.03;100000.78;5021468;28;20092;-82
2022/01/07 06:32:49;;;;;;;3.03;0.45;;;;;;;1.13;89.12;99998.38;5025018;28;20044;-82
2022/01/07 06:35:16;;;;;;;3.17;1.10;;;;;;;1.13;89.05;100003.00;5025374;28;20052;-82
2022/01/07 06:37:43;;;;;;;4.85;0.75;;;;;;;1.10;89.38;99998.97;5026172;28;20500;-82
2022/01/07 06:40:10;;;;;;;2.28;1.35;;;;;;;1.10;89.25;99990.78;5024923;28;20050;-82
2022/01/07 06:42:37;;;;;;;3.60;0.40;;;;;;;1.11;89.26;99988.88;5025477;28;20127;-80
2022/01/07 06:45:05;;;;;;;4.75;1.13;;;;;;;1.09;88.84;99983.72;5005705;28;20042;-82
2022/01/07 06:47:33;;;;;;;3.78;0.88;;;;;;;1.10;89.16;99970.91;5024562;28;20049;-82
2022/01/07 06:49:59;;;;;;;5.07;1.15;;;;;;;1.10;88.85;99970.91;5025054;28;20037;-82
2022/01/07 06:52:26;;;;;;;4.30;0.80;;;;;;;1.08;89.12;99973.94;5023815;28;20041;-82
2022/01/07 06:54:53;;;;;;;5.80;0.95;;;;;;;1.05;89.00;99988.16;5024622;28;20034;-82
2022/01/07 06:57:20;;;;;;;3.28;1.00;;;;;;;1.05;89.26;99995.53;5024367;28;20045;-82
2022/01/07 06:59:49;;;;;;;8.30;0.90;;;;;;;1.05;89.06;99987.34;5023561;28;20045;-82
2022/01/07 07:02:17;;;;;;;4.03;0.70;;;;;;;1.04;89.17;100010.25;5023607;28;20037;-82
2022/01/07 07:04:44;;;;;;;2.55;1.00;;;;;;;1.04;89.24;100012.97;5021904;28;20653;-82
2022/01/07 07:07:11;;;;;;;2.75;0.88;;;;;;;1.05;89.44;100006.44;5024458;28;20084;-82
2022/01/07 07:09:38;;;;;;;8.02;0.90;;;;;;;1.03;89.32;100030.47;5006817;28;20504;-82
2022/01/07 07:12:06;;;;;;;4.43;1.13;;;;;;;1.03;89.30;100036.69;5023589;28;20100;-82
2022/01/07 07:14:33;;;;;;;3.33;1.05;;;;;;;1.03;89.30;100035.91;5023546;28;20041;-83
2022/01/07 07:17:00;;;;;;;2.55;1.40;;;;;;;1.01;89.35;100052.53;5022685;28;20051;-82
2022/01/07 07:19:26;;;;;;;1.85;0.73;;;;;;;1.01;89.33;100049.00;5006881;28;20050;-81
2022/01/07 07:21:53;;;;;;;3.20;1.15;;;;;;;1.00;89.49;100055.56;5024515;28;20049;-83
2022/01/07 07:24:20;;;;;;;4.15;1.02;;;;;;;0.98;89.43;100065.97;5023938;28;20120;-81
2022/01/07 07:26:46;;;;;;;7.68;1.08;;;;;;;0.96;89.61;100063.53;5025101;28;20045;-82
2022/01/07 07:29:13;;;;;;;10.90;2.83;;;;;;;0.96;89.19;100054.53;5020894;28;20116;-83
2022/01/07 07:31:46;;;;;;;3.80;1.23;;;;;;;0.93;89.28;100049.69;5023634;28;20053;-83
2022/01/07 07:36:46;;;;;;;5.00;0.93;;;;;;;0.90;89.65;100053.81;5025908;28;20047;-83
2022/01/07 07:39:15;;;;;;;3.78;0.70;;;;;;;0.91;89.44;100054.63;5022862;28;20037;-82
2022/01/07 07:41:42;;;;;;;6.72;0.68;;;;;;;0.91;89.49;100054.63;5027343;28;20041;-82
2022/01/07 07:44:09;;;;;;;15.20;1.65;;;;;;;0.95;89.31;100056.47;5026857;28;20045;-82
2022/01/07 07:46:40;;;;;;;6.10;1.05;;;;;;;0.95;89.49;100066.56;5027770;28;20100;-82
2022/01/07 07:49:08;;;;;;;6.28;1.35;;;;;;;0.97;89.39;100058.91;5027680;28;20041;-82
2022/01/07 07:51:36;;;;;;;4.20;0.98;;;;;;;0.98;89.64;100055.06;5025537;28;20503;-81
2022/01/07 07:54:04;;;;;;;4.30;1.55;;;;;;;1.00;89.45;100063.75;5027680;28;20053;-80
2022/01/07 07:56:32;;;;;;;5.55;1.75;;;;;;;1.00;89.57;100058.31;5012641;28;20045;-81
2022/01/07 07:58:59;;;;;;;6.70;1.13;;;;;;;1.02;89.36;100056.09;5026837;28;20129;-81
2022/01/07 08:01:27;;;;;;;8.18;1.25;;;;;;;1.03;89.51;100063.16;5023891;28;20041;-81
2022/01/07 08:03:55;;;;;;;5.70;0.90;;;;;;;1.01;89.26;100062.63;5026293;28;20033;-81
2022/01/07 08:06:21;;;;;;;4.70;1.00;;;;;;;0.98;89.01;100079.59;5028603;28;20076;-82
2022/01/07 08:08:48;;;;;;;8.18;1.75;;;;;;;0.96;89.52;100074.44;5028388;28;20687;-81
2022/01/07 08:11:16;;;;;;;3.80;1.88;;;;;;;0.98;89.33;100074.16;5027223;28;20087;-82
2022/01/07 08:16:29;;;;;;;9.40;1.77;;;;;;;1.02;89.39;100084.16;5026067;28;20056;-80
2022/01/07 08:18:57;;;;;;;6.10;1.17;;;;;;;1.04;89.69;100094.75;5008731;28;20132;-81
2022/01/07 08:21:27;;;;;;;5.35;1.35;;;;;;;1.06;89.54;100084.38;5026271;28;20549;-81
2022/01/07 08:23:55;;;;;;;5.63;1.35;;;;;;;1.08;89.80;100090.34;5027933;28;20041;-81
2022/01/07 08:26:22;;;;;;;5.13;1.13;;;;;;;1.11;89.54;100087.00;5038113;28;20111;-81
2022/01/07 08:28:54;;;;;;;12.60;1.60;;;;;;;1.14;89.55;100086.38;5025165;28;20079;-80
2022/01/07 08:34:53;;;;;;;15.38;1.55;;;;;;;1.16;89.77;100085.00;5025757;28;20139;-80
2022/01/07 08:37:09;;;;;;;5.22;1.50;;;;;;;1.23;89.54;100084.59;5019153;28;20034;-82
2022/01/07 08:39:35;;;;;;;5.65;1.10;;;;;;;1.26;89.47;100091.38;5024742;28;20037;-82
2022/01/07 08:42:03;;;;;;;5.60;1.45;;;;;;;1.29;89.33;100093.50;5026681;28;20524;-81
2022/01/07 08:44:30;;;;;;;4.07;1.27;;;;;;;1.31;89.36;100094.81;5024345;28;20099;-82
2022/01/07 08:46:57;;;;;;;11.68;2.40;;;;;;;1.34;89.02;100085.22;5009212;28;20049;-83
2022/01/07 08:49:24;;;;;;;7.25;1.80;;;;;;;1.34;89.04;100080.59;5009760;28;20366;-83
2022/01/07 08:51:51;;;;;;;9.27;1.80;;;;;;;1.39;88.56;100072.31;5025007;28;20045;-81
2022/01/07 08:54:18;;;;;;;12.77;2.40;;;;;;;1.42;88.80;100065.44;5023314;28;20080;-81
2022/01/07 08:56:44;;;;;;;4.68;1.42;;;;;;;1.43;88.31;100073.31;5024916;28;20033;-83
2022/01/07 08:59:11;;;;;;;9.77;1.42;;;;;;;1.48;88.38;100080.63;5007749;28;20581;-82
2022/01/07 09:01:38;;;;;;;7.75;1.42;;;;;;;1.52;88.39;100090.63;5023355;28;20041;-82
2022/01/07 09:04:05;;;;;;;3.80;1.30;;;;;;;1.54;88.16;100074.75;5024526;28;20833;-82
2022/01/07 09:06:32;;;;;;;5.80;1.42;;;;;;;1.58;87.92;100070.31;5024686;28;20043;-81
2022/01/07 09:08:58;;;;;;;7.10;1.42;;;;;;;1.59;87.89;100071.91;5008974;28;20049;-82
2022/01/07 09:11:25;;;;;;;7.60;1.90;;;;;;;1.64;87.86;100069.09;5026215;28;20053;-84
2022/01/07 09:13:52;;;;;;;6.78;1.52;;;;;;;1.65;87.51;100081.63;5008344;28;20053;-81
2022/01/07 09:16:21;;;;;;;11.25;2.25;;;;;;;1.68;87.66;100085.69;5018529;28;20042;-82
2022/01/07 09:18:49;;;;;;;6.00;1.92;;;;;;;1.69;87.50;100088.13;5023613;28;20056;-82
2022/01/07 09:21:16;;;;;;;7.70;1.48;;;;;;;1.71;87.53;100102.25;5006010;28;20647;-82
2022/01/07 09:23:43;;;;;;;14.18;1.90;;;;;;;1.75;87.61;100103.25;5022398;28;20132;-81
2022/01/07 09:26:11;;;;;;;7.68;1.20;;;;;;;1.76;87.63;100093.97;5024270;28;20044;-82
2022/01/07 09:28:38;;;;;;;4.90;1.67;;;;;;;1.79;87.58;100098.84;5026164;28;20031;-82
2022/01/07 09:31:05;;;;;;;12.63;1.77;;;;;;;1.81;87.91;100107.50;5023678;28;20045;-82
2022/01/07 09:33:32;;;;;;;2.95;1.48;;;;;;;1.82;87.80;100103.69;5023920;28;20106;-83
2022/01/07 09:36:18;;;;;;;7.05;1.60;;;;;;;1.85;87.50;100102.28;5024175;28;20038;-82
2022/01/07 09:38:45;;;;;;;6.63;1.42;;;;;;;1.88;87.72;100100.84;5007085;28;20689;-83
2022/01/07 09:41:12;;;;;;;3.90;0.93;;;;;;;1.89;87.34;100092.34;5008062;28;20083;-84
2022/01/07 09:43:42;;;;;;;7.57;1.52;;;;;;;1.90;87.86;100093.16;5007755;28;20592;-83
2022/01/07 09:46:14;;;;;;;4.25;1.40;;;;;;;1.92;87.29;100094.47;5001520;28;20183;-83
2022/01/07 09:48:43;;;;;;;8.10;1.55;;;;;;;1.95;87.33;100101.25;5008576;28;20048;-83
2022/01/07 09:51:13;;;;;;;8.65;1.52;;;;;;;1.96;87.52;100090.00;5025123;28;20034;-83
2022/01/07 09:53:40;;;;;;;6.00;1.83;;;;;;;1.99;87.55;100086.69;5022002;28;20037;-82
2022/01/07 09:56:07;;;;;;;6.93;2.20;;;;;;;2.01;87.51;100094.59;5024096;28;20071;-83
2022/01/07 09:58:35;;;;;;;2.28;2.00;;;;;;;2.03;87.50;100086.88;5023968;28;20068;-82
2022/01/07 10:01:14;;;;;;;5.72;2.35;;;;;;;2.03;87.40;100075.97;5022884;28;20080;-83
2022/01/07 10:03:42;;;;;;;10.23;1.52;;;;;;;2.06;87.58;100075.38;5007772;28;20063;-83
2022/01/07 10:06:23;;;;;;;5.05;1.98;;;;;;;2.08;87.13;100078.59;5022444;28;20037;-83
2022/01/07 10:09:16;;;;;;;8.77;3.30;;;;;;;2.09;87.72;100077.50;5024397;28;20037;-82
2022/01/07 10:11:44;;;;;;;8.02;2.78;;;;;;;2.12;87.62;100065.97;5022612;28;20930;-83
2022/01/07 10:14:22;;;;;;;8.50;2.17;;;;;;;2.15;87.75;100065.31;5022342;28;20034;-82
2022/01/07 10:16:58;;;;;;;8.10;1.58;;;;;;;2.16;87.42;100070.50;5005788;28;20085;-84
2022/01/07 10:19:41;;;;;;;10.77;1.70;;;;;;;2.21;87.35;100078.56;5024092;28;20025;-82
2022/01/07 10:22:14;;;;;;;9.30;2.85;;;;;;;2.24;87.34;100088.88;5024481;28;20036;-82
2022/01/07 10:24:53;;;;;;;11.48;2.25;;;;;;;2.26;87.23;100107.69;5024601;28;20042;-81
2022/01/07 10:27:21;;;;;;;13.27;2.00;;;;;;;2.28;87.07;100108.19;5023547;28;20156;-81
2022/01/07 10:29:48;;;;;;;7.82;2.15;;;;;;;2.32;87.09;100125.59;5005417;28;20099;-81
2022/01/07 10:32:23;;;;;;;10.38;2.67;;;;;;;2.33;87.21;100119.81;5025139;28;20473;-83
2022/01/07 10:35:09;;;;;;;9.35;1.73;;;;;;;2.35;86.97;100130.44;5035179;28;20044;-83
2022/01/07 10:37:44;;;;;;;6.07;1.42;;;;;;;2.38;86.95;100132.56;5027503;28;20065;-82
2022/01/07 10:40:40;;;;;;;13.85;2.17;;;;;;;2.39;87.38;100139.63;5023009;28;20040;-83
2022/01/07 10:43:12;;;;;;;12.13;2.20;;;;;;;2.41;87.21;100142.88;5026901;28;20083;-82
2022/01/07 10:45:41;;;;;;;5.63;1.60;;;;;;;2.45;87.58;100165.75;5022963;28;20486;-82
2022/01/07 10:48:08;;;;;;;9.55;2.17;;;;;;;2.47;87.16;100141.66;5025094;28;20085;-84
2022/01/07 10:50:42;;;;;;;9.10;2.00;;;;;;;2.51;87.15;100147.31;5024370;28;20073;-84
2022/01/07 10:53:28;;;;;;;12.50;2.08;;;;;;;2.57;86.62;100167.97;5023164;28;20054;-84
2022/01/07 10:55:58;;;;;;;10.82;1.75;;;;;;;2.58;87.04;100170.38;5023667;28;20041;-84
2022/01/07 10:58:25;;;;;;;3.45;1.40;;;;;;;2.60;87.04;100170.06;5003393;28;20052;-84
2022/01/07 11:00:52;;;;;;;9.43;1.42;;;;;;;2.57;86.93;100162.50;5021828;28;20049;-84
2022/01/07 11:03:18;;;;;;;9.95;3.15;;;;;;;2.53;87.17;100170.47;5025577;28;20065;-85
2022/01/07 11:05:46;;;;;;;13.52;2.95;;;;;;;2.51;86.99;100172.72;5022783;28;20152;-84
2022/01/07 11:08:15;;;;;;;3.08;1.38;;;;;;;2.46;87.60;100172.84;5023049;28;20053;-84
2022/01/07 11:10:43;;;;;;;8.50;1.83;;;;;;;2.41;87.27;100172.91;5022204;28;20124;-84
2022/01/07 11:13:10;;;;;;;8.13;1.73;;;;;;;2.41;87.85;100183.84;5023040;28;20664;-85
2022/01/07 11:15:37;;;;;;;5.68;2.80;;;;;;;2.37;87.67;100169.19;5019630;28;20049;-85
2022/01/07 11:18:04;;;;;;;7.47;2.30;;;;;;;2.36;87.78;100192.13;5026888;28;20452;-85
2022/01/07 11:20:31;;;;;;;8.10;2.88;;;;;;;2.33;88.11;100195.50;5024949;28;20062;-84
2022/01/07 11:22:59;;;;;;;9.48;2.70;;;;;;;2.26;88.36;100195.09;5027321;28;20037;-84
2022/01/07 11:25:32;;;;;;;10.55;2.17;;;;;;;2.18;88.58;100199.34;5010400;28;20136;-83
2022/01/07 11:28:00;;;;;;;5.13;1.92;;;;;;;2.19;88.66;100205.59;5028097;28;20116;-84
2022/01/07 11:30:33;;;;;;;8.38;1.98;;;;;;;2.13;88.38;100209.53;5025643;28;20041;-84
2022/01/07 11:33:00;;;;;;;6.97;2.42;;;;;;;2.11;89.01;100225.41;5029883;28;20632;-83
2022/01/07 11:35:27;;;;;;;4.05;1.77;;;;;;;2.05;89.08;100216.50;5031431;28;20476;-84
2022/01/07 11:37:54;;;;;;;6.30;3.90;;;;;;;2.00;88.97;100226.72;5009527;28;20128;-83
2022/01/07 11:40:33;;;;;;;3.83;1.45;;;;;;;1.99;89.42;100225.09;5025725;28;20080;-82
2022/01/07 11:43:13;;;;;;;3.80;1.88;;;;;;;1.96;89.28;100229.22;5029125;28;20041;-82
2022/01/07 11:45:42;;;;;;;2.78;1.30;;;;;;;1.96;89.40;100247.56;5023657;28;20821;-83
2022/01/07 11:48:08;;;;;;;3.08;1.30;;;;;;;1.89;89.47;100245.19;5012179;28;20123;-82
2022/01/07 11:51:13;;;;;;;4.97;1.45;;;;;;;1.80;89.44;100247.00;5026782;28;20034;-82